Time;durP1;ratioP1;P1;durP2;ratioP2;P2;SDS_P1;SDS_P2;PMS_P1;PMS_P2;Temp;Humidity;BMP_temperature;BMP_pressure;BME280_temperature;BME280_humidity;BME280_pressure;Samples;Min_cycle;Max_cycle;Signal;HPM_P1;HPM_P2
2022/06/03 00:00:03;;;;;;;4.07;2.33;;;12.50;71.40;;;;;;4955989;28;20179;-77
2022/06/03 00:03:04;;;;;;;4.97;2.50;;;12.60;71.40;;;;;;4956200;28;20254;-79
2022/06/03 00:05:53;;;;;;;8.30;2.47;;;12.80;70.20;;;;;;4952384;28;20225;-78
2022/06/03 00:08:50;;;;;;;4.90;2.43;;;12.70;69.10;;;;;;4940729;29;20666;-76
2022/06/03 00:11:53;;;;;;;5.20;2.40;;;12.90;68.70;;;;;;4955681;28;20179;-78
2022/06/03 00:14:41;;;;;;;4.63;2.50;;;12.90;68.70;;;;;;4954229;29;20198;-77
2022/06/03 00:17:26;;;;;;;5.50;2.83;;;13.00;68.70;;;;;;4954840;28;20184;-78
2022/06/03 00:20:31;;;;;;;7.60;2.53;;;13.10;67.90;;;;;;4936780;29;20175;-77
2022/06/03 00:23:17;;;;;;;5.50;3.00;;;13.10;68.00;;;;;;4955945;28;20182;-82
2022/06/03 00:26:16;;;;;;;5.23;2.73;;;13.00;68.20;;;;;;4955515;29;20729;-78
2022/06/03 00:29:09;;;;;;;4.47;2.67;;;13.00;69.10;;;;;;4858979;29;20273;-77
2022/06/03 00:32:00;;;;;;;8.03;2.53;;;13.10;69.70;;;;;;4945551;28;20271;-77
2022/06/03 00:35:11;;;;;;;4.33;2.33;;;13.10;69.20;;;;;;4972737;28;20175;-76
2022/06/03 00:37:59;;;;;;;7.67;2.63;;;13.10;69.60;;;;;;4956598;28;20202;-77
2022/06/03 00:40:53;;;;;;;3.70;2.43;;;13.30;68.80;;;;;;4955405;28;20190;-77
2022/06/03 00:43:41;;;;;;;2.90;2.30;;;13.30;68.40;;;;;;4955688;28;20184;-77
2022/06/03 00:46:35;;;;;;;7.33;2.30;;;13.30;69.20;;;;;;4955151;28;20211;-76
2022/06/03 00:49:46;;;;;;;4.70;2.83;;;13.50;69.30;;;;;;4955515;29;20171;-76
2022/06/03 00:52:38;;;;;;;4.33;2.33;;;13.50;68.00;;;;;;4947058;28;20206;-76
2022/06/03 00:55:14;;;;;;;6.57;3.23;;;13.70;68.40;;;;;;4955639;29;20519;-77
2022/06/03 00:57:53;;;;;;;6.47;2.50;;;13.80;67.10;;;;;;4950524;29;20178;-77
2022/06/03 01:00:21;;;;;;;5.33;2.50;;;13.80;65.30;;;;;;4951815;29;20263;-81
2022/06/03 01:03:14;;;;;;;5.67;2.90;;;13.90;65.60;;;;;;4959318;28;20190;-82
2022/06/03 01:06:05;;;;;;;4.03;2.30;;;14.10;64.70;;;;;;4951452;28;20212;-78
2022/06/03 01:09:19;;;;;;;7.37;2.47;;;14.20;63.30;;;;;;4952434;28;20179;-77
2022/06/03 01:12:06;;;;;;;1.87;1.53;;;14.30;63.00;;;;;;4876330;29;20186;-80
2022/06/03 01:14:52;;;;;;;3.90;2.03;;;14.50;62.50;;;;;;4949932;28;20191;-80
2022/06/03 01:17:43;;;;;;;5.80;1.80;;;14.40;63.10;;;;;;4940503;28;20274;-77
2022/06/03 01:20:37;;;;;;;4.40;2.47;;;14.40;64.00;;;;;;4953787;29;20274;-77
2022/06/03 01:23:28;;;;;;;3.27;2.03;;;14.50;63.70;;;;;;4954871;28;20172;-76
2022/06/03 01:26:21;;;;;;;4.37;2.00;;;14.70;64.10;;;;;;4954571;28;20326;-77
2022/06/03 01:29:25;;;;;;;2.23;1.60;;;14.90;63.00;;;;;;4946063;29;20273;-76
2022/06/03 01:32:27;;;;;;;6.63;1.57;;;14.90;60.40;;;;;;4938755;28;20199;-84
2022/06/03 01:35:09;;;;;;;3.83;1.43;;;15.20;59.70;;;;;;4953959;28;20193;-80
2022/06/03 01:37:52;;;;;;;4.20;1.70;;;15.20;58.60;;;;;;4954596;29;20281;-81
2022/06/03 01:40:19;;;;;;;3.37;1.40;;;15.40;58.00;;;;;;4954746;28;20211;-79
2022/06/03 01:43:04;;;;;;;3.80;1.40;;;15.50;56.90;;;;;;4954608;29;20195;-83
2022/06/03 01:45:32;;;;;;;4.13;1.60;;;15.50;56.30;;;;;;4947446;28;20245;-79
2022/06/03 01:48:25;;;;;;;4.93;1.70;;;15.60;56.10;;;;;;4954519;28;20181;-81
2022/06/03 01:51:15;;;;;;;3.60;1.40;;;15.50;56.80;;;;;;4915559;28;20208;-83
2022/06/03 01:54:28;;;;;;;2.60;1.70;;;15.70;56.50;;;;;;4954739;29;20255;-81
2022/06/03 01:57:26;;;;;;;3.93;1.57;;;16.10;55.80;;;;;;4948724;28;20184;-87
2022/06/03 02:00:09;;;;;;;4.13;1.57;;;16.30;55.20;;;;;;4952284;29;20225;-80
2022/06/03 02:03:14;;;;;;;3.40;1.70;;;16.30;54.00;;;;;;4954832;28;20171;-84
2022/06/03 02:06:03;;;;;;;7.03;1.60;;;16.60;53.10;;;;;;4903238;29;20602;-77
2022/06/03 02:08:49;;;;;;;3.83;2.07;;;16.60;52.30;;;;;;4949899;28;20183;-77
2022/06/03 02:11:36;;;;;;;4.07;1.47;;;16.50;53.00;;;;;;4941278;29;20197;-80
2022/06/03 02:14:10;;;;;;;4.20;1.60;;;16.60;53.10;;;;;;4953706;29;20641;-76
2022/06/03 02:16:40;;;;;;;2.43;1.57;;;16.70;52.50;;;;;;4953144;29;20183;-77
2022/06/03 02:20:00;;;;;;;3.80;1.50;;;16.70;52.20;;;;;;4954075;28;20241;-78
2022/06/03 02:22:39;;;;;;;2.80;1.30;;;16.70;52.00;;;;;;4920922;29;20202;-77
2022/06/03 02:25:27;;;;;;;3.03;1.60;;;16.50;52.80;;;;;;4958036;28;20614;-78
2022/06/03 02:28:11;;;;;;;2.97;1.53;;;16.60;52.50;;;;;;4944603;29;20238;-82
2022/06/03 02:31:08;;;;;;;1.57;1.20;;;16.50;50.60;;;;;;4941791;29;20298;-78
2022/06/03 02:34:12;;;;;;;2.67;1.20;;;16.60;50.40;;;;;;4958390;28;20238;-85
2022/06/03 02:37:00;;;;;;;2.77;1.30;;;16.40;49.70;;;;;;4958032;28;20185;-80
2022/06/03 02:39:54;;;;;;;2.00;0.90;;;16.40;50.50;;;;;;4958126;29;20646;-78
2022/06/03 02:42:33;;;;;;;3.63;1.53;;;16.30;50.40;;;;;;4957851;29;20179;-78
2022/06/03 02:45:38;;;;;;;4.40;1.50;;;16.60;50.70;;;;;;4958453;28;20214;-81
2022/06/03 02:48:09;;;;;;;2.80;1.13;;;16.70;50.10;;;;;;4936366;29;20190;-82
2022/06/03 02:51:09;;;;;;;1.80;1.07;;;16.70;49.10;;;;;;4957366;28;20199;-85
2022/06/03 02:54:17;;;;;;;1.83;1.13;;;16.60;50.20;;;;;;4951958;28;20261;-79
2022/06/03 02:57:14;;;;;;;1.43;1.10;;;16.50;50.30;;;;;;4941607;29;20198;-78
2022/06/03 03:00:05;;;;;;;2.77;1.33;;;16.40;50.30;;;;;;4954665;28;20198;-80
2022/06/03 03:03:09;;;;;;;3.27;1.47;;;16.20;51.90;;;;;;4957618;28;20534;-86
2022/06/03 03:06:09;;;;;;;3.43;1.40;;;16.00;52.90;;;;;;4956897;28;20225;-82
2022/06/03 03:09:02;;;;;;;4.40;1.30;;;15.80;53.40;;;;;;4957342;28;20541;-85
2022/06/03 03:12:11;;;;;;;4.67;1.60;;;15.70;53.30;;;;;;4957539;28;20540;-79
2022/06/03 03:15:17;;;;;;;2.30;1.20;;;15.80;52.50;;;;;;4957799;28;20181;-84
2022/06/03 03:18:18;;;;;;;2.80;1.40;;;15.50;53.80;;;;;;4957452;28;20620;-85
2022/06/03 03:21:00;;;;;;;5.13;1.53;;;15.30;54.60;;;;;;4957048;28;20209;-84
2022/06/03 03:23:46;;;;;;;1.20;1.10;;;15.40;55.40;;;;;;4957369;28;20207;-81
2022/06/03 03:26:50;;;;;;;3.70;1.40;;;15.40;55.40;;;;;;4937741;29;20236;-80
2022/06/03 03:29:39;;;;;;;5.23;1.30;;;15.30;55.70;;;;;;4949653;29;20197;-85
2022/06/03 03:32:28;;;;;;;3.27;1.30;;;15.30;56.30;;;;;;4924742;29;20192;-84
2022/06/03 03:35:14;;;;;;;3.00;1.20;;;15.20;56.40;;;;;;4937975;29;20563;-79
2022/06/03 03:37:41;;;;;;;3.23;1.27;;;15.20;57.30;;;;;;4954486;28;20645;-85
2022/06/03 03:40:37;;;;;;;2.00;1.27;;;15.20;57.80;;;;;;4957375;28;20223;-85
2022/06/03 03:43:22;;;;;;;2.03;1.30;;;15.20;58.40;;;;;;4944989;28;20207;-84
2022/06/03 03:45:50;;;;;;;3.23;1.27;;;15.20;57.60;;;;;;4956798;29;20215;-79
2022/06/03 03:48:44;;;;;;;2.47;1.20;;;15.20;58.20;;;;;;4954785;29;20697;-79
2022/06/03 03:51:48;;;;;;;8.00;1.83;;;15.20;57.90;;;;;;4955641;28;20207;-79
2022/06/03 03:54:47;;;;;;;3.20;1.83;;;15.30;57.50;;;;;;4955765;28;20188;-83
2022/06/03 03:57:35;;;;;;;3.90;2.40;;;15.30;57.60;;;;;;4954949;28;20590;-78
2022/06/03 04:00:29;;;;;;;4.73;1.80;;;15.30;58.20;;;;;;4955584;28;20187;-77
2022/06/03 04:03:15;;;;;;;2.60;1.50;;;15.30;58.40;;;;;;4898230;29;20230;-79
2022/06/03 04:06:09;;;;;;;1.60;1.10;;;15.30;58.00;;;;;;4938020;29;20657;-80
2022/06/03 04:09:05;;;;;;;4.23;1.20;;;15.20;57.90;;;;;;4956277;29;20590;-80
2022/06/03 04:11:54;;;;;;;3.33;1.13;;;15.20;58.10;;;;;;4953201;28;20536;-80
2022/06/03 04:14:57;;;;;;;2.00;1.17;;;15.20;57.60;;;;;;4955090;28;20526;-82
2022/06/03 04:17:43;;;;;;;1.40;1.20;;;15.20;57.40;;;;;;4937057;29;20262;-79
2022/06/03 04:21:01;;;;;;;2.77;1.30;;;15.10;58.30;;;;;;4955751;28;20179;-81
2022/06/03 04:23:55;;;;;;;2.10;1.23;;;15.10;58.60;;;;;;4846794;29;20319;-78
2022/06/03 04:26:41;;;;;;;3.50;1.10;;;15.00;58.20;;;;;;4831001;29;20253;-81
2022/06/03 04:29:35;;;;;;;5.03;1.30;;;15.00;59.00;;;;;;4924900;29;20283;-80
2022/06/03 04:32:21;;;;;;;4.13;1.10;;;15.10;59.00;;;;;;4935885;29;20185;-80
2022/06/03 04:35:09;;;;;;;2.43;1.30;;;15.20;58.30;;;;;;4935192;29;20266;-78
2022/06/03 04:38:21;;;;;;;2.70;1.47;;;15.30;57.60;;;;;;4935911;29;20176;-80
2022/06/03 04:41:43;;;;;;;4.70;1.30;;;15.40;57.50;;;;;;4936605;29;20551;-88
2022/06/03 04:44:28;;;;;;;3.13;1.20;;;15.40;56.70;;;;;;4936534;29;20809;-81
2022/06/03 04:47:14;;;;;;;2.80;1.33;;;15.30;56.70;;;;;;4936325;29;20315;-78
2022/06/03 04:49:44;;;;;;;1.77;1.00;;;15.30;56.40;;;;;;4936154;29;20180;-81
2022/06/03 04:52:48;;;;;;;2.03;1.20;;;15.20;56.40;;;;;;4935710;29;20191;-81
2022/06/03 04:55:41;;;;;;;1.77;1.20;;;15.20;57.00;;;;;;4924985;29;20184;-81
2022/06/03 04:58:36;;;;;;;1.77;1.40;;;15.20;56.60;;;;;;4898876;29;20604;-78
2022/06/03 05:01:19;;;;;;;1.97;1.13;;;15.00;55.70;;;;;;4935304;29;20240;-81
2022/06/03 05:03:55;;;;;;;1.80;1.10;;;15.00;56.30;;;;;;4935220;29;20267;-82
2022/06/03 05:06:44;;;;;;;4.57;1.40;;;15.00;56.00;;;;;;4932754;29;20204;-81
2022/06/03 05:09:34;;;;;;;1.73;1.30;;;15.00;56.30;;;;;;4934258;29;20188;-87
2022/06/03 05:12:17;;;;;;;4.50;1.30;;;15.10;55.80;;;;;;4892156;29;20239;-80
2022/06/03 05:15:06;;;;;;;2.60;1.10;;;15.10;55.30;;;;;;4917947;29;20652;-79
2022/06/03 05:17:44;;;;;;;6.40;1.40;;;15.10;55.40;;;;;;4931849;29;20723;-83
2022/06/03 05:20:40;;;;;;;3.77;1.20;;;15.10;56.40;;;;;;4918405;29;20594;-82
2022/06/03 05:23:27;;;;;;;2.27;1.30;;;15.00;57.40;;;;;;4935139;29;20176;-82
2022/06/03 05:26:35;;;;;;;4.80;1.70;;;14.90;58.70;;;;;;4944340;28;20322;-82
2022/06/03 05:29:43;;;;;;;2.63;1.20;;;14.80;58.50;;;;;;4857792;29;20186;-80
2022/06/03 05:32:47;;;;;;;1.83;1.23;;;14.80;58.70;;;;;;4924787;29;20641;-81
2022/06/03 05:35:36;;;;;;;3.43;1.53;;;14.70;58.60;;;;;;4954781;28;20283;-84
2022/06/03 05:38:27;;;;;;;3.73;1.30;;;14.60;59.20;;;;;;4954575;28;20175;-83
2022/06/03 05:45:08;;;;;;;5.97;1.00;;;14.50;58.80;;;;;;4926352;29;20198;-83
2022/06/03 05:47:41;;;;;;;3.77;1.40;;;14.50;59.40;;;;;;4945907;29;20190;-83
2022/06/03 05:50:19;;;;;;;4.00;1.10;;;14.50;59.40;;;;;;4954350;28;20726;-82
2022/06/03 05:53:22;;;;;;;6.57;3.33;;;14.50;60.00;;;;;;4952876;28;20206;-82
2022/06/03 05:55:53;;;;;;;2.87;2.00;;;14.50;59.90;;;;;;4952655;28;20186;-82
2022/06/03 05:58:49;;;;;;;3.73;1.10;;;14.40;59.60;;;;;;4947717;29;20191;-80
2022/06/03 06:01:28;;;;;;;2.90;1.40;;;14.30;59.60;;;;;;4898146;29;20217;-83
2022/06/03 06:04:06;;;;;;;7.07;3.53;;;14.30;60.20;;;;;;4954306;28;20202;-81
2022/06/03 06:06:51;;;;;;;4.47;1.63;;;14.30;59.70;;;;;;4953739;28;20305;-84
2022/06/03 06:09:45;;;;;;;2.93;1.10;;;14.30;59.90;;;;;;4952120;28;20194;-82
2022/06/03 06:12:46;;;;;;;1.63;1.10;;;14.20;60.30;;;;;;4951716;28;20520;-81
2022/06/03 06:15:37;;;;;;;2.40;1.13;;;14.20;60.80;;;;;;4954405;28;20178;-81
2022/06/03 06:18:28;;;;;;;4.20;1.30;;;14.20;61.20;;;;;;4938446;29;20194;-84
2022/06/03 06:21:26;;;;;;;4.40;1.20;;;14.20;61.60;;;;;;4953338;29;20215;-84
2022/06/03 06:24:12;;;;;;;3.77;1.30;;;14.10;61.50;;;;;;4929473;29;20574;-83
2022/06/03 06:27:28;;;;;;;3.33;1.20;;;14.00;61.40;;;;;;4944025;28;20219;-81
2022/06/03 06:30:25;;;;;;;8.17;1.63;;;14.00;61.30;;;;;;4923646;29;20540;-80
2022/06/03 06:33:29;;;;;;;3.13;1.50;;;14.00;61.30;;;;;;4953921;29;20183;-80
2022/06/03 06:36:17;;;;;;;2.70;1.50;;;14.00;61.60;;;;;;4954227;28;20266;-81
2022/06/03 06:38:52;;;;;;;5.10;1.50;;;14.00;61.90;;;;;;4928215;29;20183;-83
2022/06/03 06:41:43;;;;;;;4.33;1.67;;;14.00;62.20;;;;;;4950007;28;20215;-81
2022/06/03 06:44:15;;;;;;;4.47;1.47;;;14.00;63.50;;;;;;4952456;28;20182;-85
2022/06/03 06:46:57;;;;;;;3.17;1.50;;;13.90;65.10;;;;;;4951082;29;20765;-83
2022/06/03 06:49:41;;;;;;;2.87;1.40;;;13.80;66.20;;;;;;4954200;29;20217;-78
2022/06/03 06:52:40;;;;;;;2.60;1.20;;;13.70;67.60;;;;;;4953956;28;20191;-77
2022/06/03 06:55:07;;;;;;;2.43;1.40;;;13.50;68.40;;;;;;4949236;28;20183;-79
2022/06/03 06:57:41;;;;;;;7.20;1.57;;;13.30;71.20;;;;;;4954262;28;20227;-81
2022/06/03 07:00:24;;;;;;;7.33;1.70;;;13.20;72.50;;;;;;4944882;29;20552;-77
2022/06/03 07:03:37;;;;;;;3.20;1.23;;;13.10;72.60;;;;;;4953023;28;20715;-78
2022/06/03 07:06:32;;;;;;;6.63;1.50;;;13.00;73.50;;;;;;4935825;28;20225;-78
2022/06/03 07:09:25;;;;;;;5.47;1.37;;;13.00;73.90;;;;;;4955844;28;20207;-77
2022/06/03 07:12:07;;;;;;;2.00;1.10;;;12.80;73.90;;;;;;4945656;28;20183;-79
2022/06/03 07:15:07;;;;;;;4.67;1.43;;;12.80;73.60;;;;;;4957228;28;20262;-81
2022/06/03 07:21:10;;;;;;;3.40;1.70;;;12.80;74.60;;;;;;4910582;29;20184;-82
2022/06/03 07:23:46;;;;;;;3.80;1.40;;;12.80;75.10;;;;;;4917058;29;20176;-81
2022/06/03 07:26:41;;;;;;;2.27;1.60;;;12.80;75.20;;;;;;4942440;28;20238;-80
2022/06/03 07:29:23;;;;;;;4.40;1.40;;;12.80;75.20;;;;;;4946806;29;20194;-77
2022/06/03 07:32:00;;;;;;;3.87;1.50;;;12.70;75.00;;;;;;4956593;28;20422;-82
2022/06/03 07:34:32;;;;;;;5.63;1.47;;;12.70;75.00;;;;;;4956493;28;20175;-78
2022/06/03 07:37:02;;;;;;;4.03;1.53;;;12.70;75.30;;;;;;4943553;29;20646;-81
2022/06/03 07:39:35;;;;;;;3.03;1.83;;;12.70;75.10;;;;;;4939251;29;20457;-78
2022/06/03 07:42:20;;;;;;;6.07;1.40;;;12.60;75.10;;;;;;4956647;28;20717;-79
2022/06/03 07:45:26;;;;;;;2.67;1.53;;;12.60;74.50;;;;;;4946136;28;20183;-80
2022/06/03 07:47:55;;;;;;;1.63;1.43;;;12.60;74.40;;;;;;4951880;28;20654;-83
2022/06/03 07:50:23;;;;;;;1.87;1.30;;;12.60;74.80;;;;;;4936151;29;20690;-82
2022/06/03 07:53:00;;;;;;;5.97;1.70;;;12.60;75.20;;;;;;4935867;28;20191;-80
2022/06/03 07:55:30;;;;;;;3.67;1.50;;;12.60;74.20;;;;;;4955384;28;20193;-83
2022/06/03 07:58:05;;;;;;;2.10;1.30;;;12.50;74.40;;;;;;4954966;29;20191;-78
2022/06/03 08:00:38;;;;;;;4.13;1.80;;;12.50;73.30;;;;;;4933045;29;20182;-80
2022/06/03 08:03:16;;;;;;;2.30;1.60;;;12.50;73.90;;;;;;4955249;28;20186;-82
2022/06/03 08:05:49;;;;;;;2.80;1.70;;;12.40;73.00;;;;;;4956111;28;20215;-83
2022/06/03 08:11:25;;;;;;;2.43;1.80;;;12.50;73.10;;;;;;4951435;28;20194;-79
2022/06/03 08:13:56;;;;;;;3.30;1.80;;;12.40;71.00;;;;;;4947908;28;20183;-84
2022/06/03 08:16:29;;;;;;;2.00;1.40;;;12.50;71.80;;;;;;4954633;28;20191;-79
2022/06/03 08:19:00;;;;;;;1.93;1.40;;;12.50;71.90;;;;;;4954833;28;20191;-82
2022/06/03 08:21:31;;;;;;;1.37;1.27;;;12.50;71.70;;;;;;4938696;28;20202;-79
2022/06/03 08:24:01;;;;;;;1.80;1.37;;;12.50;69.90;;;;;;4952436;29;20178;-82
2022/06/03 08:26:31;;;;;;;3.83;1.67;;;12.50;70.20;;;;;;4954501;28;20708;-83
2022/06/03 08:29:13;;;;;;;2.53;1.40;;;12.40;68.80;;;;;;4951522;28;20191;-81
2022/06/03 08:31:42;;;;;;;3.40;1.40;;;12.50;69.20;;;;;;4953964;28;20187;-80
2022/06/03 08:34:20;;;;;;;2.10;1.33;;;12.40;68.70;;;;;;4938651;29;20263;-76
2022/06/03 08:36:47;;;;;;;2.23;1.67;;;12.50;68.60;;;;;;4951289;28;20214;-83
2022/06/03 08:39:22;;;;;;;2.13;1.57;;;12.40;68.40;;;;;;4955909;29;20507;-84
2022/06/03 08:41:59;;;;;;;1.33;1.23;;;12.40;68.00;;;;;;4955723;28;20589;-85
2022/06/03 08:45:04;;;;;;;2.53;1.60;;;12.40;68.60;;;;;;4938535;29;21050;-84
2022/06/03 08:47:40;;;;;;;1.83;1.10;;;12.40;68.10;;;;;;4954372;28;20685;-81
2022/06/03 08:50:31;;;;;;;3.70;1.37;;;12.40;67.90;;;;;;4955222;28;20680;-78
2022/06/03 08:53:05;;;;;;;2.37;1.53;;;12.30;68.10;;;;;;4955443;28;20650;-87
2022/06/03 08:55:41;;;;;;;3.70;1.50;;;12.30;67.80;;;;;;4954952;28;20186;-83
2022/06/03 08:58:29;;;;;;;3.50;1.50;;;12.30;67.90;;;;;;4951960;29;20651;-79
2022/06/03 09:01:24;;;;;;;2.43;1.50;;;12.30;67.40;;;;;;4951745;28;20183;-83
2022/06/03 09:03:57;;;;;;;4.77;1.67;;;12.30;67.30;;;;;;4954997;28;20209;-80
2022/06/03 09:06:36;;;;;;;2.93;1.53;;;12.30;67.70;;;;;;4945345;28;20557;-88
2022/06/03 09:09:25;;;;;;;1.57;1.40;;;12.30;67.70;;;;;;4954425;28;20617;-79
2022/06/03 09:12:08;;;;;;;2.60;1.67;;;12.30;67.10;;;;;;4955423;28;20178;-81
2022/06/03 09:14:36;;;;;;;3.80;1.50;;;12.30;67.10;;;;;;4954610;28;20183;-83
2022/06/03 09:17:24;;;;;;;3.43;1.80;;;12.30;67.40;;;;;;4955667;28;20543;-83
2022/06/03 09:19:54;;;;;;;1.60;1.50;;;12.30;67.60;;;;;;4954658;28;20210;-83
2022/06/03 09:22:26;;;;;;;2.97;1.83;;;12.30;67.60;;;;;;4954398;28;20254;-82
2022/06/03 09:24:57;;;;;;;3.00;1.97;;;12.30;68.20;;;;;;4952262;28;20585;-82
2022/06/03 09:27:27;;;;;;;4.40;2.00;;;12.30;68.30;;;;;;4954605;29;20285;-81
2022/06/03 09:29:58;;;;;;;4.47;1.70;;;12.30;69.50;;;;;;4948232;28;20183;-81
2022/06/03 09:32:28;;;;;;;3.13;1.90;;;12.20;69.70;;;;;;4952375;28;20217;-81
2022/06/03 09:35:03;;;;;;;4.57;1.50;;;12.20;69.60;;;;;;4954320;28;20187;-84
2022/06/03 09:37:39;;;;;;;1.70;1.60;;;12.10;70.10;;;;;;4954806;28;20189;-81
2022/06/03 09:40:29;;;;;;;4.47;1.60;;;12.10;70.60;;;;;;4954348;28;20724;-78
2022/06/03 09:43:16;;;;;;;3.57;1.27;;;12.00;69.70;;;;;;4954265;29;20258;-81
2022/06/03 09:45:46;;;;;;;2.70;1.67;;;12.00;70.80;;;;;;4938861;28;20222;-80
2022/06/03 09:48:17;;;;;;;8.43;1.80;;;11.90;70.00;;;;;;4954049;29;20281;-81
2022/06/03 09:50:52;;;;;;;1.60;1.47;;;11.90;72.70;;;;;;4954698;28;20185;-81
2022/06/03 09:53:22;;;;;;;4.20;1.90;;;11.90;72.00;;;;;;4954340;28;20569;-81
2022/06/03 09:56:02;;;;;;;2.53;1.80;;;11.90;72.00;;;;;;4953799;28;20187;-78
2022/06/03 09:58:32;;;;;;;3.67;1.80;;;11.80;72.60;;;;;;4952359;29;20183;-81
2022/06/03 10:01:03;;;;;;;2.47;1.77;;;11.80;73.10;;;;;;4925073;29;20187;-77
2022/06/03 10:03:32;;;;;;;3.87;1.80;;;11.70;72.50;;;;;;4954179;28;20183;-79
2022/06/03 10:06:00;;;;;;;2.87;1.90;;;11.80;72.40;;;;;;4952278;28;20295;-78
2022/06/03 10:14:04;;;;;;;2.60;1.70;;;11.80;73.00;;;;;;4952885;28;20194;-78
2022/06/03 10:16:32;;;;;;;3.27;1.90;;;11.80;73.00;;;;;;4953656;28;20330;-77
2022/06/03 10:18:59;;;;;;;4.07;3.53;;;11.80;72.50;;;;;;4952847;28;20278;-75
2022/06/03 10:21:30;;;;;;;8.23;5.57;;;11.80;73.00;;;;;;4953320;28;20179;-78
2022/06/03 10:24:04;;;;;;;2.67;1.53;;;11.70;73.20;;;;;;4954267;28;20175;-80
2022/06/03 10:26:39;;;;;;;2.23;1.70;;;11.70;73.70;;;;;;4951666;29;20234;-77
2022/06/03 10:29:10;;;;;;;2.63;1.50;;;11.70;73.60;;;;;;4953583;29;20182;-78
2022/06/03 10:31:38;;;;;;;3.40;1.60;;;11.70;74.00;;;;;;4954153;28;20184;-77
2022/06/03 10:34:11;;;;;;;1.60;1.50;;;11.70;74.00;;;;;;4954255;28;20191;-77
2022/06/03 10:36:42;;;;;;;1.83;1.73;;;11.70;74.00;;;;;;4951678;28;20190;-75
2022/06/03 10:39:14;;;;;;;2.80;1.73;;;11.60;74.30;;;;;;4954037;28;20823;-75
2022/06/03 10:41:48;;;;;;;2.07;1.50;;;11.60;74.10;;;;;;4940323;28;20645;-75
2022/06/03 10:44:23;;;;;;;5.33;1.83;;;11.60;73.90;;;;;;4957365;28;20206;-78
2022/06/03 10:47:04;;;;;;;3.40;1.77;;;11.60;74.20;;;;;;4956904;28;20260;-80
2022/06/03 10:49:36;;;;;;;5.90;1.77;;;11.60;74.70;;;;;;4958004;28;20733;-76
2022/06/03 11:03:27;;;;;;;2.73;1.50;;;11.50;74.00;;;;;;4953355;28;20227;-79
2022/06/03 11:05:56;;;;;;;3.07;1.47;;;11.50;73.70;;;;;;4956332;29;20206;-78
2022/06/03 11:08:23;;;;;;;1.93;1.33;;;11.50;73.60;;;;;;4956506;29;20549;-80
2022/06/03 11:10:54;;;;;;;2.90;1.30;;;11.50;73.50;;;;;;4955197;28;20191;-76
2022/06/03 11:13:39;;;;;;;2.40;1.60;;;11.50;73.10;;;;;;4957465;28;20183;-79
2022/06/03 11:16:23;;;;;;;1.20;1.10;;;11.60;73.20;;;;;;4954431;28;20187;-83
2022/06/03 11:18:51;;;;;;;3.20;1.50;;;11.60;72.80;;;;;;4957411;28;20237;-79
2022/06/03 11:21:24;;;;;;;1.93;1.10;;;11.60;73.10;;;;;;4950608;28;20191;-81
2022/06/03 11:23:53;;;;;;;1.80;1.47;;;11.60;73.00;;;;;;4957519;28;20189;-79
2022/06/03 11:26:22;;;;;;;1.60;1.10;;;11.60;72.90;;;;;;4956624;28;20710;-83
2022/06/03 11:29:05;;;;;;;1.33;1.20;;;11.60;72.40;;;;;;4958827;29;20661;-74
2022/06/03 11:31:37;;;;;;;1.93;1.23;;;11.60;72.70;;;;;;4957969;28;20182;-83
2022/06/03 11:34:10;;;;;;;1.77;1.30;;;11.60;72.30;;;;;;4937295;28;20653;-80
2022/06/03 11:37:00;;;;;;;2.23;1.50;;;11.60;72.30;;;;;;4955063;28;20596;-79
2022/06/03 11:39:53;;;;;;;2.20;1.60;;;11.60;72.10;;;;;;4954446;28;20187;-81
2022/06/03 11:42:48;;;;;;;2.57;1.60;;;11.60;72.40;;;;;;4955551;28;20187;-87
2022/06/03 11:45:28;;;;;;;1.87;1.43;;;11.70;71.60;;;;;;4957674;28;20631;-81
2022/06/03 11:48:02;;;;;;;1.73;1.60;;;11.70;72.30;;;;;;4956060;28;20187;-81
2022/06/03 11:50:31;;;;;;;1.93;1.30;;;11.70;72.00;;;;;;4956734;28;20191;-80
2022/06/03 11:52:59;;;;;;;2.50;1.50;;;11.80;71.80;;;;;;4956070;28;20187;-80
2022/06/03 11:55:30;;;;;;;3.20;1.40;;;11.70;71.70;;;;;;4956851;28;20190;-79
2022/06/03 11:58:13;;;;;;;2.53;1.60;;;11.70;71.40;;;;;;4937426;29;20186;-80
2022/06/03 12:00:47;;;;;;;2.30;1.40;;;11.70;71.10;;;;;;4953376;29;20207;-79
2022/06/03 12:03:37;;;;;;;1.50;1.40;;;11.70;71.30;;;;;;4955088;28;20178;-80
2022/06/03 12:06:24;;;;;;;2.13;1.47;;;11.70;71.40;;;;;;4954133;29;20222;-79
2022/06/03 12:09:23;;;;;;;3.63;1.50;;;11.70;71.20;;;;;;4957192;28;20539;-81
2022/06/03 12:15:32;;;;;;;4.73;1.50;;;11.70;71.00;;;;;;4956200;28;20190;-79
2022/06/03 12:18:09;;;;;;;1.50;1.40;;;11.70;71.70;;;;;;4941004;28;20273;-84
2022/06/03 12:20:52;;;;;;;1.40;1.30;;;11.70;71.40;;;;;;4938873;29;20186;-80
2022/06/03 12:23:19;;;;;;;4.70;1.60;;;11.70;71.70;;;;;;4955501;29;20238;-79
2022/06/03 12:25:53;;;;;;;2.53;1.50;;;11.60;72.20;;;;;;4955183;28;20357;-77
2022/06/03 12:28:34;;;;;;;1.57;1.47;;;11.60;72.80;;;;;;4942900;29;20191;-82
2022/06/03 12:31:22;;;;;;;2.43;1.20;;;11.60;73.40;;;;;;4955799;29;20183;-80
2022/06/03 12:33:59;;;;;;;1.40;1.30;;;11.60;73.50;;;;;;4951151;28;20198;-78
2022/06/03 12:36:47;;;;;;;3.00;1.40;;;11.50;73.60;;;;;;4944378;29;20645;-79
2022/06/03 12:39:31;;;;;;;2.07;1.40;;;11.50;74.10;;;;;;4938176;29;20629;-80
2022/06/03 12:42:03;;;;;;;1.63;1.40;;;11.50;74.30;;;;;;4956588;28;20270;-80
2022/06/03 12:44:50;;;;;;;1.40;1.20;;;11.50;74.40;;;;;;4956725;28;20247;-80
2022/06/03 12:47:45;;;;;;;1.83;1.37;;;11.50;75.10;;;;;;4958200;28;20222;-80
2022/06/03 12:50:24;;;;;;;1.30;1.20;;;11.50;75.20;;;;;;4952460;28;20199;-80
2022/06/03 12:53:01;;;;;;;2.50;1.60;;;11.50;74.70;;;;;;4957688;28;20183;-79
2022/06/03 12:55:33;;;;;;;2.47;1.40;;;11.40;75.20;;;;;;4952269;28;20190;-80
2022/06/03 12:58:24;;;;;;;4.23;1.60;;;11.50;75.50;;;;;;4943093;29;20298;-80
2022/06/03 13:00:58;;;;;;;2.37;1.30;;;11.50;75.30;;;;;;4952296;28;20186;-80
2022/06/03 13:03:25;;;;;;;2.27;1.20;;;11.50;75.30;;;;;;4949367;28;20179;-82
2022/06/03 13:05:56;;;;;;;2.83;1.43;;;11.50;75.40;;;;;;4955451;29;20254;-81
2022/06/03 13:08:30;;;;;;;2.37;1.77;;;11.40;75.50;;;;;;4954776;28;20587;-90
2022/06/03 13:11:08;;;;;;;3.17;1.70;;;11.50;75.80;;;;;;4943232;28;20327;-80
2022/06/03 13:14:03;;;;;;;1.47;1.20;;;11.50;75.60;;;;;;4954451;28;20190;-80
2022/06/03 13:16:37;;;;;;;2.73;1.47;;;11.40;75.50;;;;;;4926441;29;20198;-79
2022/06/03 13:19:21;;;;;;;4.67;1.60;;;11.50;75.80;;;;;;4954463;28;20196;-80
2022/06/03 13:22:00;;;;;;;3.40;1.67;;;11.50;76.00;;;;;;4942953;29;20175;-82
2022/06/03 13:24:32;;;;;;;2.90;1.60;;;11.50;76.00;;;;;;4954534;28;20269;-81
2022/06/03 13:27:17;;;;;;;3.33;1.77;;;11.50;75.90;;;;;;4955270;29;20956;-79
2022/06/03 13:29:55;;;;;;;1.70;1.27;;;11.40;76.20;;;;;;4941318;29;20183;-78
2022/06/03 13:32:40;;;;;;;3.33;1.70;;;11.40;76.00;;;;;;4953793;28;20187;-80
2022/06/03 13:35:09;;;;;;;2.53;1.60;;;11.40;76.50;;;;;;4954963;29;20187;-80
2022/06/03 13:37:52;;;;;;;1.73;1.50;;;11.50;76.50;;;;;;4954099;28;20209;-80
2022/06/03 13:40:25;;;;;;;5.20;1.53;;;11.40;76.70;;;;;;4952977;28;20195;-79
2022/06/03 13:43:10;;;;;;;2.70;1.67;;;11.50;76.80;;;;;;4951585;28;20187;-79
2022/06/03 13:46:05;;;;;;;2.27;1.47;;;11.50;76.90;;;;;;4949745;28;20218;-80
2022/06/03 13:49:01;;;;;;;1.63;1.40;;;11.50;76.70;;;;;;4945852;29;20206;-80
2022/06/03 13:51:35;;;;;;;1.57;1.47;;;11.40;76.80;;;;;;4954586;28;20642;-78
2022/06/03 13:54:36;;;;;;;3.93;1.30;;;11.40;77.10;;;;;;4953851;29;20174;-79
2022/06/03 13:57:33;;;;;;;5.87;1.73;;;11.40;77.20;;;;;;4954621;28;20672;-79
2022/06/03 14:00:13;;;;;;;1.83;1.70;;;11.30;77.10;;;;;;4953540;29;20182;-80
2022/06/03 14:02:42;;;;;;;4.90;1.93;;;11.30;77.00;;;;;;4954475;28;20603;-79
2022/06/03 14:05:15;;;;;;;4.67;1.80;;;11.30;77.10;;;;;;4953973;28;20534;-79
2022/06/03 14:08:13;;;;;;;3.40;1.90;;;11.30;77.20;;;;;;4952354;28;20280;-79
2022/06/03 14:11:09;;;;;;;3.17;2.27;;;11.30;77.30;;;;;;4954706;28;20211;-79
2022/06/03 14:14:08;;;;;;;4.60;1.80;;;11.30;77.40;;;;;;4942597;28;20489;-80
2022/06/03 14:16:48;;;;;;;1.70;1.60;;;11.30;78.00;;;;;;4943215;28;20187;-80
2022/06/03 14:19:35;;;;;;;2.57;1.97;;;11.20;78.20;;;;;;4957817;28;20218;-78
2022/06/03 14:22:13;;;;;;;2.53;1.87;;;11.20;78.20;;;;;;4957408;28;20179;-78
2022/06/03 14:24:48;;;;;;;2.73;1.90;;;11.20;79.40;;;;;;4957699;28;20242;-78
2022/06/03 14:27:40;;;;;;;2.07;1.77;;;11.20;79.40;;;;;;4957781;28;20243;-80
2022/06/03 14:30:27;;;;;;;2.13;1.80;;;11.10;78.70;;;;;;4963101;28;20181;-79
2022/06/03 14:32:58;;;;;;;1.87;1.67;;;11.10;79.20;;;;;;4949902;28;20647;-80
2022/06/03 14:35:40;;;;;;;3.50;1.70;;;11.10;79.10;;;;;;4958022;29;20180;-80
2022/06/03 14:38:11;;;;;;;2.60;1.90;;;11.10;79.00;;;;;;4957564;29;20187;-79
2022/06/03 14:40:42;;;;;;;1.70;1.60;;;11.10;78.80;;;;;;4957986;28;20184;-80
2022/06/03 14:43:13;;;;;;;4.20;1.93;;;11.10;79.00;;;;;;4958224;29;20178;-82
2022/06/03 14:45:48;;;;;;;2.20;1.43;;;11.00;79.00;;;;;;4957925;28;20215;-80